VTK601 UTAA-URMM
Flight info
| Callsign | VTK601 |
|---|---|
| Flight time | N/A |
| Altitude | 36000 |
| Route | MAM29D MAMED B450 MARAL N50 LASKA/K0859F360 B450 KZ R227 URILU URILU5B |
| Aircraft | MD11/H-SDE1E2E3FGHIJ2J3J4J5M1RWXY/LB1D1 |
Departure
| Time | 2026-04-16 07:46 |
|---|---|
| Airport | Ashgabat International Airport (UTAA) |
Arrival
| Time | N/A |
|---|---|
| Airport | Mineralnye Vody Airport (URMM) |
| Time | Latitude | Longitude | Altitude | Speed | Heading |
|---|---|---|---|---|---|
| 2026-04-16 07:34 | 37.98550 | 58.36445 | 678 ft | 0 kts | 300° |
| 2026-04-16 07:39 | 37.98545 | 58.36457 | 676 ft | 2 kts | 300° |
| 2026-04-16 07:39 | 37.98537 | 58.36475 | 675 ft | 2 kts | 299° |
| 2026-04-16 07:40 | 37.98524 | 58.36502 | 677 ft | 4 kts | 318° |
| 2026-04-16 07:40 | 37.98499 | 58.36513 | 675 ft | 4 kts | 26° |
| 2026-04-16 07:40 | 37.98494 | 58.36510 | 677 ft | 0 kts | 26° |
| 2026-04-16 07:42 | 37.98510 | 58.36520 | 677 ft | 6 kts | 26° |
| 2026-04-16 07:42 | 37.98565 | 58.36556 | 677 ft | 12 kts | 29° |
| 2026-04-16 07:42 | 37.98653 | 58.36619 | 678 ft | 17 kts | 29° |
| 2026-04-16 07:42 | 37.98718 | 58.36729 | 678 ft | 13 kts | 96° |
| 2026-04-16 07:43 | 37.98678 | 58.36831 | 677 ft | 15 kts | 111° |
| 2026-04-16 07:43 | 37.98630 | 58.36979 | 678 ft | 21 kts | 112° |
| 2026-04-16 07:43 | 37.98556 | 58.37170 | 678 ft | 27 kts | 121° |
| 2026-04-16 07:43 | 37.98456 | 58.37382 | 676 ft | 28 kts | 121° |
| 2026-04-16 07:44 | 37.98363 | 58.37589 | 674 ft | 26 kts | 118° |
| 2026-04-16 07:44 | 37.98280 | 58.37784 | 678 ft | 24 kts | 118° |
| 2026-04-16 07:44 | 37.98252 | 58.37969 | 676 ft | 21 kts | 62° |
| 2026-04-16 07:44 | 37.98362 | 58.38042 | 677 ft | 13 kts | 355° |
| 2026-04-16 07:45 | 37.98387 | 58.38019 | 677 ft | 1 kts | 291° |
| 2026-04-16 07:45 | 37.98394 | 58.37987 | 674 ft | 7 kts | 289° |
| 2026-04-16 07:45 | 37.98468 | 58.37810 | 672 ft | 59 kts | 299° |
| 2026-04-16 07:45 | 37.98820 | 58.37021 | 679 ft | 143 kts | 300° |
| 2026-04-16 07:46 | 37.99360 | 58.35715 | 1028 ft | 179 kts | 297° |
| 2026-04-16 07:46 | 37.99947 | 58.34268 | 1974 ft | 188 kts | 299° |
| 2026-04-16 07:46 | 38.00600 | 58.32812 | 2951 ft | 191 kts | 300° |
| 2026-04-16 07:46 | 38.01048 | 58.31844 | 3604 ft | 193 kts | 300° |
| 2026-04-16 07:47 | 38.01933 | 58.29872 | 4828 ft | 200 kts | 299° |
| 2026-04-16 07:47 | 38.02708 | 58.28224 | 5022 ft | 235 kts | 304° |
| 2026-04-16 07:47 | 38.03874 | 58.26622 | 5516 ft | 253 kts | 316° |
| 2026-04-16 07:47 | 38.05219 | 58.25178 | 6722 ft | 254 kts | 317° |
| 2026-04-16 07:48 | 38.06145 | 58.24214 | 7455 ft | 256 kts | 317° |
| 2026-04-16 07:48 | 38.07538 | 58.22769 | 8457 ft | 261 kts | 317° |
| 2026-04-16 07:48 | 38.08961 | 58.21295 | 9444 ft | 267 kts | 318° |
| 2026-04-16 07:48 | 38.10397 | 58.19810 | 10348 ft | 276 kts | 318° |
| 2026-04-16 07:49 | 38.11971 | 58.18173 | 10519 ft | 310 kts | 318° |
| 2026-04-16 07:49 | 38.13730 | 58.16344 | 10707 ft | 340 kts | 318° |
| 2026-04-16 07:49 | 38.15581 | 58.14426 | 11578 ft | 346 kts | 319° |
| 2026-04-16 07:49 | 38.17460 | 58.12483 | 12538 ft | 350 kts | 319° |
| 2026-04-16 07:50 | 38.19363 | 58.10511 | 13456 ft | 355 kts | 319° |
| 2026-04-16 07:50 | 38.21288 | 58.08515 | 14322 ft | 360 kts | 319° |
| 2026-04-16 07:50 | 38.23235 | 58.06493 | 15116 ft | 363 kts | 319° |
| 2026-04-16 07:50 | 38.25202 | 58.04451 | 15910 ft | 366 kts | 319° |
| 2026-04-16 07:51 | 38.27182 | 58.02393 | 16692 ft | 369 kts | 318° |
| 2026-04-16 07:51 | 38.29180 | 58.00313 | 17447 ft | 373 kts | 318° |
| 2026-04-16 07:51 | 38.31195 | 57.98213 | 18196 ft | 376 kts | 318° |
| 2026-04-16 07:51 | 38.33230 | 57.96091 | 18854 ft | 379 kts | 317° |
| 2026-04-16 07:52 | 38.35279 | 57.93952 | 19456 ft | 383 kts | 317° |
| 2026-04-16 07:52 | 38.37353 | 57.91785 | 20009 ft | 387 kts | 317° |
| 2026-04-16 07:52 | 38.39420 | 57.89623 | 20548 ft | 392 kts | 317° |
| 2026-04-16 07:52 | 38.41535 | 57.87411 | 21127 ft | 395 kts | 317° |
| 2026-04-16 07:53 | 38.43668 | 57.85179 | 21719 ft | 398 kts | 317° |
| 2026-04-16 07:53 | 38.45817 | 57.82926 | 22312 ft | 402 kts | 317° |
| 2026-04-16 07:53 | 38.47989 | 57.80650 | 22909 ft | 406 kts | 317° |
| 2026-04-16 07:53 | 38.50180 | 57.78352 | 23522 ft | 409 kts | 317° |
| 2026-04-16 07:54 | 38.52388 | 57.76033 | 24066 ft | 413 kts | 317° |
| 2026-04-16 07:54 | 38.54617 | 57.73689 | 24607 ft | 416 kts | 317° |
| 2026-04-16 07:54 | 38.56861 | 57.71329 | 25165 ft | 420 kts | 317° |
| 2026-04-16 07:54 | 38.59125 | 57.68945 | 25701 ft | 423 kts | 317° |
| 2026-04-16 07:55 | 38.61397 | 57.66526 | 26234 ft | 426 kts | 315° |
| 2026-04-16 07:55 | 38.63412 | 57.63769 | 26741 ft | 425 kts | 305° |
| 2026-04-16 07:55 | 38.65105 | 57.60654 | 27300 ft | 427 kts | 300° |
| 2026-04-16 07:55 | 38.66655 | 57.57393 | 27821 ft | 430 kts | 298° |
| 2026-04-16 07:56 | 38.68169 | 57.54071 | 28342 ft | 434 kts | 298° |
| 2026-04-16 07:56 | 38.69676 | 57.50770 | 28857 ft | 438 kts | 298° |
| 2026-04-16 07:56 | 38.71256 | 57.47359 | 29378 ft | 441 kts | 298° |
| 2026-04-16 07:56 | 38.72823 | 57.44023 | 29871 ft | 445 kts | 298° |
| 2026-04-16 07:57 | 38.74432 | 57.40618 | 30313 ft | 449 kts | 299° |
| 2026-04-16 07:57 | 38.76059 | 57.37194 | 30743 ft | 450 kts | 299° |
| 2026-04-16 07:57 | 38.77687 | 57.33778 | 31314 ft | 448 kts | 299° |
| 2026-04-16 07:57 | 38.79305 | 57.30386 | 31931 ft | 443 kts | 299° |
| 2026-04-16 07:58 | 38.80903 | 57.27029 | 32586 ft | 439 kts | 298° |
| 2026-04-16 07:58 | 38.82480 | 57.23710 | 33242 ft | 433 kts | 298° |
| 2026-04-16 07:58 | 38.84038 | 57.20427 | 33871 ft | 429 kts | 298° |
| 2026-04-16 07:58 | 38.85579 | 57.17175 | 34415 ft | 424 kts | 298° |
| 2026-04-16 07:59 | 38.87109 | 57.13941 | 34774 ft | 424 kts | 298° |
| 2026-04-16 07:59 | 38.88641 | 57.10699 | 35051 ft | 426 kts | 298° |
| 2026-04-16 07:59 | 38.90178 | 57.07441 | 35321 ft | 427 kts | 298° |
| 2026-04-16 07:59 | 38.91718 | 57.04179 | 35619 ft | 427 kts | 298° |
| 2026-04-16 08:00 | 38.93258 | 57.00913 | 35903 ft | 428 kts | 298° |
| 2026-04-16 08:00 | 38.94799 | 56.97640 | 36084 ft | 429 kts | 298° |
| 2026-04-16 08:00 | 38.96321 | 56.94401 | 36132 ft | 430 kts | 298° |
| 2026-04-16 08:01 | 38.99406 | 56.87827 | 36164 ft | 429 kts | 298° |
| 2026-04-16 08:01 | 39.02492 | 56.81239 | 36138 ft | 430 kts | 298° |
| 2026-04-16 08:02 | 39.05575 | 56.74644 | 36141 ft | 430 kts | 298° |
| 2026-04-16 08:02 | 39.10161 | 56.64720 | 36144 ft | 430 kts | 298° |
| 2026-04-16 08:03 | 39.13224 | 56.58108 | 36142 ft | 431 kts | 298° |
| 2026-04-16 08:03 | 39.16298 | 56.51484 | 36148 ft | 430 kts | 298° |
| 2026-04-16 08:04 | 39.19358 | 56.44870 | 36139 ft | 430 kts | 298° |
| 2026-04-16 08:04 | 39.22421 | 56.38247 | 36161 ft | 430 kts | 298° |
| 2026-04-16 08:05 | 39.25469 | 56.31637 | 36141 ft | 433 kts | 298° |
| 2026-04-16 08:05 | 39.28538 | 56.24973 | 36148 ft | 431 kts | 298° |
| 2026-04-16 08:06 | 39.31595 | 56.18322 | 36140 ft | 431 kts | 298° |
| 2026-04-16 08:06 | 39.34647 | 56.11665 | 36132 ft | 432 kts | 298° |
| 2026-04-16 08:07 | 39.37708 | 56.04966 | 36135 ft | 433 kts | 298° |
| 2026-04-16 08:07 | 39.40766 | 55.98259 | 36133 ft | 433 kts | 298° |
| 2026-04-16 08:08 | 39.43824 | 55.91546 | 36133 ft | 433 kts | 298° |
| 2026-04-16 08:08 | 39.46886 | 55.84810 | 36137 ft | 435 kts | 298° |
| 2026-04-16 08:09 | 39.49956 | 55.78053 | 36125 ft | 436 kts | 298° |
| 2026-04-16 08:09 | 39.53052 | 55.71333 | 36128 ft | 434 kts | 298° |
| 2026-04-16 08:10 | 39.56160 | 55.64634 | 36137 ft | 434 kts | 299° |
| 2026-04-16 08:10 | 39.59252 | 55.57967 | 36133 ft | 435 kts | 299° |
| 2026-04-16 08:11 | 39.62364 | 55.51238 | 36133 ft | 435 kts | 298° |
| 2026-04-16 08:11 | 39.65470 | 55.44511 | 36130 ft | 435 kts | 298° |
| 2026-04-16 08:12 | 39.68573 | 55.37771 | 36126 ft | 434 kts | 298° |
| 2026-04-16 08:12 | 39.71611 | 55.30990 | 36129 ft | 434 kts | 297° |
| 2026-04-16 08:13 | 39.74611 | 55.24176 | 36125 ft | 434 kts | 297° |
| 2026-04-16 08:13 | 39.77607 | 55.17368 | 36128 ft | 435 kts | 298° |
| 2026-04-16 08:14 | 39.80596 | 55.10580 | 36124 ft | 436 kts | 298° |
| 2026-04-16 08:14 | 39.83635 | 55.03705 | 36120 ft | 434 kts | 298° |
| 2026-04-16 08:15 | 39.86681 | 54.96986 | 36122 ft | 434 kts | 298° |
| 2026-04-16 08:15 | 39.89765 | 54.90229 | 36127 ft | 435 kts | 298° |
| 2026-04-16 08:16 | 39.92851 | 54.83449 | 36132 ft | 436 kts | 298° |
| 2026-04-16 08:16 | 39.95939 | 54.76651 | 36127 ft | 435 kts | 298° |
| 2026-04-16 08:17 | 39.99017 | 54.69854 | 36135 ft | 436 kts | 298° |
| 2026-04-16 08:17 | 40.02097 | 54.63037 | 36132 ft | 436 kts | 298° |
| 2026-04-16 08:19 | 40.14381 | 54.35704 | 36134 ft | 438 kts | 298° |
| 2026-04-16 08:20 | 40.17453 | 54.28823 | 36133 ft | 438 kts | 298° |
| 2026-04-16 08:20 | 40.20524 | 54.21933 | 36137 ft | 438 kts | 298° |
| 2026-04-16 08:21 | 40.23598 | 54.15024 | 36132 ft | 440 kts | 298° |
| 2026-04-16 08:21 | 40.26661 | 54.08084 | 36133 ft | 440 kts | 298° |
| 2026-04-16 08:22 | 40.29711 | 54.01135 | 36129 ft | 440 kts | 298° |
| 2026-04-16 08:22 | 40.32772 | 53.94183 | 36134 ft | 441 kts | 298° |
| 2026-04-16 08:23 | 40.35838 | 53.87229 | 36139 ft | 440 kts | 298° |
| 2026-04-16 08:23 | 40.38898 | 53.80274 | 36142 ft | 440 kts | 298° |
| 2026-04-16 08:24 | 40.41930 | 53.73364 | 36142 ft | 440 kts | 298° |
| 2026-04-16 08:24 | 40.44983 | 53.66389 | 36142 ft | 441 kts | 298° |
| 2026-04-16 08:25 | 40.48040 | 53.59393 | 36145 ft | 441 kts | 298° |
| 2026-04-16 08:25 | 40.51086 | 53.52400 | 36150 ft | 441 kts | 298° |
| 2026-04-16 08:26 | 40.54135 | 53.45389 | 36159 ft | 443 kts | 298° |
| 2026-04-16 08:26 | 40.57175 | 53.38385 | 36154 ft | 444 kts | 298° |
| 2026-04-16 08:27 | 40.60231 | 53.31328 | 36150 ft | 444 kts | 298° |
| 2026-04-16 08:27 | 40.63287 | 53.24258 | 36149 ft | 444 kts | 298° |
| 2026-04-16 08:28 | 40.66341 | 53.17162 | 36157 ft | 446 kts | 298° |
| 2026-04-16 08:28 | 40.69379 | 53.10017 | 36151 ft | 447 kts | 297° |
| 2026-04-16 08:29 | 40.72427 | 53.02866 | 36155 ft | 447 kts | 298° |
| 2026-04-16 08:29 | 40.75458 | 52.95764 | 36160 ft | 447 kts | 298° |
| 2026-04-16 08:30 | 40.78514 | 52.88607 | 36153 ft | 448 kts | 298° |
| 2026-04-16 08:30 | 40.81564 | 52.81444 | 36156 ft | 448 kts | 298° |
| 2026-04-16 08:31 | 40.84607 | 52.74282 | 36149 ft | 446 kts | 297° |
| 2026-04-16 08:31 | 40.87637 | 52.67132 | 36154 ft | 448 kts | 297° |
| 2026-04-16 08:32 | 40.90676 | 52.59923 | 36142 ft | 449 kts | 297° |
| 2026-04-16 08:32 | 40.93685 | 52.52692 | 36153 ft | 449 kts | 297° |
| 2026-04-16 08:33 | 40.96693 | 52.45457 | 36152 ft | 449 kts | 297° |
| 2026-04-16 08:33 | 40.99691 | 52.38244 | 36149 ft | 451 kts | 297° |
| 2026-04-16 08:34 | 41.02714 | 52.30956 | 36155 ft | 452 kts | 297° |
| 2026-04-16 08:34 | 41.05736 | 52.23661 | 36146 ft | 452 kts | 297° |
| 2026-04-16 08:35 | 41.08758 | 52.16348 | 36143 ft | 454 kts | 297° |
| 2026-04-16 08:35 | 41.11781 | 52.09011 | 36147 ft | 454 kts | 297° |
| 2026-04-16 08:36 | 41.14797 | 52.01676 | 36147 ft | 453 kts | 297° |
| 2026-04-16 08:36 | 41.17811 | 51.94326 | 36155 ft | 454 kts | 297° |
| 2026-04-16 08:37 | 41.20828 | 51.86947 | 36163 ft | 455 kts | 297° |
| 2026-04-16 08:37 | 41.23838 | 51.79567 | 36145 ft | 454 kts | 297° |
| 2026-04-16 08:38 | 41.26814 | 51.72252 | 36150 ft | 454 kts | 297° |
| 2026-04-16 08:38 | 41.29817 | 51.64852 | 36148 ft | 456 kts | 297° |
| 2026-04-16 08:39 | 41.32801 | 51.57404 | 36150 ft | 455 kts | 297° |
| 2026-04-16 08:39 | 41.36009 | 51.50122 | 36165 ft | 456 kts | 303° |
| 2026-04-16 08:40 | 41.39699 | 51.43238 | 36162 ft | 458 kts | 305° |
| 2026-04-16 08:40 | 41.43465 | 51.36406 | 36154 ft | 458 kts | 305° |
| 2026-04-16 08:41 | 41.47214 | 51.29514 | 36168 ft | 459 kts | 305° |
| 2026-04-16 08:41 | 41.50934 | 51.22616 | 36153 ft | 459 kts | 304° |
| 2026-04-16 08:42 | 41.54639 | 51.15720 | 36170 ft | 457 kts | 305° |
| 2026-04-16 08:42 | 41.58320 | 51.08853 | 36167 ft | 459 kts | 305° |
| 2026-04-16 08:43 | 41.62023 | 51.01926 | 36167 ft | 459 kts | 305° |
| 2026-04-16 08:43 | 41.65741 | 50.94960 | 36156 ft | 459 kts | 305° |
| 2026-04-16 08:44 | 41.69447 | 50.88004 | 36166 ft | 460 kts | 305° |
| 2026-04-16 08:44 | 41.73133 | 50.81062 | 36156 ft | 456 kts | 305° |
| 2026-04-16 08:45 | 41.76822 | 50.74098 | 36166 ft | 459 kts | 305° |
| 2026-04-16 08:45 | 41.80518 | 50.67102 | 36171 ft | 462 kts | 305° |
| 2026-04-16 08:46 | 41.83599 | 50.61248 | 36172 ft | 462 kts | 304° |
| 2026-04-16 08:46 | 41.87904 | 50.52999 | 36162 ft | 461 kts | 305° |
| 2026-04-16 08:47 | 41.90962 | 50.47153 | 36162 ft | 459 kts | 304° |
| 2026-04-16 08:47 | 41.94650 | 50.40110 | 36163 ft | 461 kts | 304° |
| 2026-04-16 08:48 | 41.98345 | 50.33042 | 36168 ft | 464 kts | 305° |
| 2026-04-16 08:48 | 42.02045 | 50.25958 | 36167 ft | 461 kts | 304° |
| 2026-04-16 08:49 | 42.05739 | 50.18877 | 36164 ft | 461 kts | 305° |
| 2026-04-16 08:49 | 42.09428 | 50.11799 | 36168 ft | 462 kts | 305° |
| 2026-04-16 08:50 | 42.13118 | 50.04699 | 36175 ft | 463 kts | 305° |
| 2026-04-16 08:50 | 42.16789 | 49.97617 | 36170 ft | 465 kts | 305° |
| 2026-04-16 08:51 | 42.20485 | 49.90471 | 36184 ft | 464 kts | 305° |
| 2026-04-16 08:51 | 42.24176 | 49.83319 | 36166 ft | 463 kts | 304° |
| 2026-04-16 08:52 | 42.27851 | 49.76177 | 36168 ft | 465 kts | 305° |
| 2026-04-16 08:52 | 42.31535 | 49.69002 | 36169 ft | 466 kts | 305° |
| 2026-04-16 08:53 | 42.35224 | 49.61798 | 36178 ft | 466 kts | 305° |
| 2026-04-16 08:53 | 42.38915 | 49.54603 | 36169 ft | 466 kts | 305° |
| 2026-04-16 08:54 | 42.42664 | 49.47464 | 36183 ft | 465 kts | 306° |
| 2026-04-16 08:54 | 42.46450 | 49.40341 | 36176 ft | 466 kts | 306° |
| 2026-04-16 08:55 | 42.50241 | 49.33206 | 36167 ft | 468 kts | 306° |
| 2026-04-16 08:55 | 42.54011 | 49.26091 | 36169 ft | 467 kts | 306° |
| 2026-04-16 08:56 | 42.57794 | 49.18928 | 36180 ft | 466 kts | 306° |
| 2026-04-16 08:56 | 42.61567 | 49.11768 | 36169 ft | 466 kts | 306° |
| 2026-04-16 08:57 | 42.65341 | 49.04591 | 36176 ft | 467 kts | 306° |
| 2026-04-16 08:57 | 42.69093 | 48.97437 | 36181 ft | 468 kts | 306° |
| 2026-04-16 08:58 | 42.72863 | 48.90229 | 36172 ft | 467 kts | 306° |
| 2026-04-16 08:58 | 42.76613 | 48.83026 | 36180 ft | 466 kts | 306° |
| 2026-04-16 08:59 | 42.80345 | 48.75817 | 36169 ft | 466 kts | 305° |
| 2026-04-16 08:59 | 42.84093 | 48.68595 | 36170 ft | 467 kts | 306° |
| 2026-04-16 09:00 | 42.87848 | 48.61357 | 36186 ft | 467 kts | 305° |
| 2026-04-16 09:00 | 42.91592 | 48.54124 | 36180 ft | 467 kts | 305° |
| 2026-04-16 09:01 | 42.97197 | 48.43263 | 36176 ft | 466 kts | 305° |
| 2026-04-16 09:02 | 43.00932 | 48.36005 | 36176 ft | 467 kts | 305° |
| 2026-04-16 09:02 | 43.04663 | 48.28739 | 36174 ft | 468 kts | 305° |
| 2026-04-16 09:03 | 43.08390 | 48.21456 | 36180 ft | 467 kts | 305° |
| 2026-04-16 09:03 | 43.12087 | 48.14217 | 36177 ft | 466 kts | 305° |
| 2026-04-16 09:04 | 43.15799 | 48.06934 | 36176 ft | 467 kts | 305° |
| 2026-04-16 09:04 | 43.19508 | 47.99637 | 36180 ft | 467 kts | 305° |
| 2026-04-16 09:05 | 43.23216 | 47.92318 | 36173 ft | 468 kts | 305° |
| 2026-04-16 09:05 | 43.26891 | 47.84972 | 36185 ft | 467 kts | 304° |
| 2026-04-16 09:06 | 43.30567 | 47.77639 | 36188 ft | 466 kts | 305° |
| 2026-04-16 09:06 | 43.34253 | 47.70310 | 36177 ft | 467 kts | 305° |
| 2026-04-16 09:07 | 43.37941 | 47.62975 | 36184 ft | 467 kts | 305° |
| 2026-04-16 09:07 | 43.41622 | 47.55623 | 36180 ft | 466 kts | 304° |
| 2026-04-16 09:08 | 43.45295 | 47.48264 | 36183 ft | 466 kts | 304° |
| 2026-04-16 09:08 | 43.48956 | 47.40916 | 36177 ft | 465 kts | 304° |
| 2026-04-16 09:09 | 43.52612 | 47.33562 | 36180 ft | 465 kts | 304° |
| 2026-04-16 09:09 | 43.56267 | 47.26189 | 36184 ft | 467 kts | 304° |
| 2026-04-16 09:10 | 43.59916 | 47.18805 | 36170 ft | 465 kts | 304° |
| 2026-04-16 09:10 | 43.63557 | 47.11427 | 36182 ft | 465 kts | 304° |
| 2026-04-16 09:11 | 43.67164 | 47.04095 | 36180 ft | 465 kts | 304° |
| 2026-04-16 09:11 | 43.70786 | 46.96690 | 36175 ft | 465 kts | 303° |
| 2026-04-16 09:12 | 43.74390 | 46.89252 | 36179 ft | 465 kts | 303° |
| 2026-04-16 09:12 | 43.77994 | 46.81837 | 36181 ft | 465 kts | 303° |
| 2026-04-16 09:13 | 43.81596 | 46.74430 | 36182 ft | 463 kts | 303° |
| 2026-04-16 09:13 | 43.84316 | 46.66395 | 36178 ft | 463 kts | 284° |
| 2026-04-16 09:14 | 43.85354 | 46.57592 | 36186 ft | 464 kts | 276° |
| 2026-04-16 09:14 | 43.86084 | 46.48723 | 36181 ft | 463 kts | 277° |
| 2026-04-16 09:15 | 43.86948 | 46.39849 | 36187 ft | 464 kts | 278° |
| 2026-04-16 09:15 | 43.87881 | 46.31069 | 36178 ft | 463 kts | 279° |
| 2026-04-16 09:16 | 43.88833 | 46.22242 | 36189 ft | 464 kts | 278° |
| 2026-04-16 09:16 | 43.89779 | 46.13401 | 36176 ft | 463 kts | 279° |
| 2026-04-16 09:17 | 43.90711 | 46.04574 | 36182 ft | 463 kts | 279° |
| 2026-04-16 09:17 | 43.91637 | 45.95733 | 36183 ft | 463 kts | 279° |
| 2026-04-16 09:18 | 43.92406 | 45.88429 | 36194 ft | 462 kts | 279° |
| 2026-04-16 09:18 | 43.93396 | 45.79592 | 36184 ft | 464 kts | 279° |
| 2026-04-16 09:19 | 43.94414 | 45.70769 | 36194 ft | 463 kts | 280° |
| 2026-04-16 09:19 | 43.95428 | 45.61985 | 35952 ft | 459 kts | 279° |
| 2026-04-16 09:19 | 43.95931 | 45.57597 | 35556 ft | 460 kts | 279° |
| 2026-04-16 09:20 | 43.96429 | 45.53223 | 34986 ft | 460 kts | 279° |
| 2026-04-16 09:20 | 43.96928 | 45.48838 | 34409 ft | 460 kts | 279° |
| 2026-04-16 09:20 | 43.97425 | 45.44432 | 33774 ft | 463 kts | 279° |
| 2026-04-16 09:20 | 43.97925 | 45.40005 | 33154 ft | 465 kts | 279° |
| 2026-04-16 09:21 | 43.98423 | 45.35557 | 32560 ft | 468 kts | 279° |
| 2026-04-16 09:21 | 43.98925 | 45.31075 | 31973 ft | 471 kts | 278° |
| 2026-04-16 09:21 | 43.99429 | 45.26563 | 31385 ft | 474 kts | 278° |
| 2026-04-16 09:21 | 43.99931 | 45.22026 | 30801 ft | 476 kts | 278° |
| 2026-04-16 09:22 | 44.00418 | 45.17479 | 30174 ft | 478 kts | 277° |
| 2026-04-16 09:22 | 44.00903 | 45.12891 | 29430 ft | 479 kts | 277° |
| 2026-04-16 09:22 | 44.01385 | 45.08328 | 28748 ft | 476 kts | 277° |
| 2026-04-16 09:22 | 44.01864 | 45.03807 | 28105 ft | 470 kts | 278° |
| 2026-04-16 09:23 | 44.02333 | 44.99392 | 27476 ft | 465 kts | 278° |
| 2026-04-16 09:23 | 44.02804 | 44.94971 | 26845 ft | 461 kts | 278° |
| 2026-04-16 09:23 | 44.03270 | 44.90585 | 26225 ft | 457 kts | 278° |
| 2026-04-16 09:23 | 44.03737 | 44.86177 | 25610 ft | 453 kts | 278° |
| 2026-04-16 09:24 | 44.04185 | 44.81928 | 25002 ft | 448 kts | 278° |
| 2026-04-16 09:24 | 44.04630 | 44.77667 | 24397 ft | 444 kts | 277° |
| 2026-04-16 09:24 | 44.05073 | 44.73433 | 23791 ft | 441 kts | 278° |
| 2026-04-16 09:24 | 44.05511 | 44.69226 | 23111 ft | 439 kts | 278° |
| 2026-04-16 09:25 | 44.05945 | 44.65045 | 22482 ft | 434 kts | 277° |
| 2026-04-16 09:25 | 44.06373 | 44.60912 | 21881 ft | 430 kts | 278° |
| 2026-04-16 09:25 | 44.06813 | 44.56815 | 21284 ft | 427 kts | 278° |
| 2026-04-16 09:25 | 44.07277 | 44.52747 | 20652 ft | 424 kts | 278° |
| 2026-04-16 09:26 | 44.07752 | 44.48712 | 20024 ft | 421 kts | 278° |
| 2026-04-16 09:26 | 44.08230 | 44.44706 | 19409 ft | 418 kts | 279° |
| 2026-04-16 09:26 | 44.08704 | 44.40737 | 18799 ft | 414 kts | 279° |
| 2026-04-16 09:26 | 44.09174 | 44.36802 | 18152 ft | 409 kts | 278° |
| 2026-04-16 09:27 | 44.09636 | 44.32909 | 17503 ft | 407 kts | 278° |
| 2026-04-16 09:27 | 44.10094 | 44.29046 | 16888 ft | 403 kts | 278° |
| 2026-04-16 09:27 | 44.10543 | 44.25211 | 16284 ft | 399 kts | 278° |
| 2026-04-16 09:27 | 44.10983 | 44.21433 | 15709 ft | 393 kts | 278° |
| 2026-04-16 09:28 | 44.11417 | 44.17696 | 15146 ft | 389 kts | 279° |
| 2026-04-16 09:28 | 44.11845 | 44.14009 | 14593 ft | 384 kts | 279° |
| 2026-04-16 09:28 | 44.12268 | 44.10347 | 14040 ft | 381 kts | 279° |
| 2026-04-16 09:28 | 44.12686 | 44.06731 | 13433 ft | 377 kts | 279° |
| 2026-04-16 09:29 | 44.13099 | 44.03158 | 12868 ft | 371 kts | 279° |
| 2026-04-16 09:29 | 44.13499 | 43.99682 | 12328 ft | 367 kts | 279° |
| 2026-04-16 09:29 | 44.13907 | 43.96187 | 11814 ft | 363 kts | 279° |
| 2026-04-16 09:29 | 44.14310 | 43.92738 | 11414 ft | 359 kts | 279° |
| 2026-04-16 09:30 | 44.14693 | 43.89336 | 11223 ft | 349 kts | 279° |
| 2026-04-16 09:30 | 44.15062 | 43.86113 | 11124 ft | 325 kts | 279° |
| 2026-04-16 09:30 | 44.15400 | 43.83115 | 11006 ft | 305 kts | 279° |
| 2026-04-16 09:30 | 44.15712 | 43.80283 | 10892 ft | 288 kts | 279° |
| 2026-04-16 09:31 | 44.16015 | 43.77600 | 10783 ft | 276 kts | 279° |
| 2026-04-16 09:31 | 44.16318 | 43.74963 | 10611 ft | 275 kts | 279° |
| 2026-04-16 09:31 | 44.16600 | 43.72351 | 10294 ft | 270 kts | 275° |
| 2026-04-16 09:31 | 44.16535 | 43.69747 | 10113 ft | 273 kts | 264° |
| 2026-04-16 09:32 | 44.16253 | 43.67083 | 9389 ft | 281 kts | 261° |
| 2026-04-16 09:32 | 44.15908 | 43.64389 | 8802 ft | 283 kts | 261° |
| 2026-04-16 09:32 | 44.15553 | 43.61713 | 8296 ft | 276 kts | 260° |
| 2026-04-16 09:32 | 44.15216 | 43.59155 | 7740 ft | 264 kts | 261° |
| 2026-04-16 09:33 | 44.14892 | 43.56708 | 7267 ft | 259 kts | 261° |
| 2026-04-16 09:33 | 44.14568 | 43.54248 | 6864 ft | 260 kts | 261° |
| 2026-04-16 09:33 | 44.14239 | 43.51756 | 6468 ft | 262 kts | 261° |
| 2026-04-16 09:33 | 44.13912 | 43.49267 | 6053 ft | 260 kts | 261° |
| 2026-04-16 09:34 | 44.13588 | 43.46801 | 5669 ft | 258 kts | 261° |
| 2026-04-16 09:34 | 44.13265 | 43.44354 | 5281 ft | 256 kts | 261° |
| 2026-04-16 09:34 | 44.12946 | 43.41927 | 4924 ft | 254 kts | 261° |
| 2026-04-16 09:34 | 44.12628 | 43.39527 | 4586 ft | 249 kts | 261° |
| 2026-04-16 09:35 | 44.12318 | 43.37221 | 4511 ft | 236 kts | 261° |
| 2026-04-16 09:35 | 44.12031 | 43.35022 | 4501 ft | 227 kts | 263° |
| 2026-04-16 09:35 | 44.11995 | 43.32851 | 4493 ft | 224 kts | 281° |
| 2026-04-16 09:35 | 44.12529 | 43.30829 | 4481 ft | 226 kts | 297° |
| 2026-04-16 09:36 | 44.13290 | 43.28896 | 4191 ft | 228 kts | 301° |
| 2026-04-16 09:36 | 44.14107 | 43.27074 | 3900 ft | 215 kts | 302° |
| 2026-04-16 09:36 | 44.14889 | 43.25396 | 3600 ft | 196 kts | 302° |
| 2026-04-16 09:36 | 44.15595 | 43.23867 | 3342 ft | 184 kts | 302° |
| 2026-04-16 09:37 | 44.16257 | 43.22422 | 3111 ft | 168 kts | 302° |
| 2026-04-16 09:37 | 44.16845 | 43.21129 | 2882 ft | 151 kts | 302° |
| 2026-04-16 09:37 | 44.17404 | 43.19899 | 2686 ft | 151 kts | 302° |
| 2026-04-16 09:37 | 44.17963 | 43.18665 | 2478 ft | 151 kts | 302° |
| 2026-04-16 09:38 | 44.18520 | 43.17436 | 2309 ft | 149 kts | 302° |
| 2026-04-16 09:38 | 44.19069 | 43.16235 | 2100 ft | 146 kts | 301° |
| 2026-04-16 09:38 | 44.19432 | 43.15441 | 1955 ft | 147 kts | 301° |
| 2026-04-16 09:38 | 44.19974 | 43.14245 | 1752 ft | 146 kts | 303° |
| 2026-04-16 09:39 | 44.20514 | 43.13048 | 1531 ft | 146 kts | 303° |
| 2026-04-16 09:39 | 44.21228 | 43.11466 | 1279 ft | 145 kts | 302° |
| 2026-04-16 09:39 | 44.21601 | 43.10672 | 1151 ft | 144 kts | 302° |
| 2026-04-16 09:39 | 44.22259 | 43.09226 | 1061 ft | 110 kts | 302° |
| 2026-04-16 09:40 | 44.22584 | 43.08506 | 1061 ft | 69 kts | 302° |
| 2026-04-16 09:40 | 44.22795 | 43.08042 | 1057 ft | 51 kts | 302° |